createdAt,value
2022-11-26T00:01:41.671Z,5.30
2022-11-26T00:04:09.088Z,5.40
2022-11-26T00:06:40.093Z,5.60
2022-11-26T00:09:11.825Z,5.60
2022-11-26T00:11:38.654Z,5.60
2022-11-26T00:14:11.123Z,5.60
2022-11-26T00:16:37.967Z,5.70
2022-11-26T00:19:04.793Z,5.60
2022-11-26T00:21:33.499Z,5.70
2022-11-26T00:24:02.754Z,5.70
2022-11-26T00:26:29.645Z,5.60
2022-11-26T00:29:00.025Z,5.70
2022-11-26T00:31:27.246Z,5.80
2022-11-26T00:33:54.167Z,5.90
2022-11-26T00:36:25.710Z,5.90
2022-11-26T00:39:06.996Z,5.80
2022-11-26T00:41:38.707Z,5.80
2022-11-26T00:44:17.511Z,5.80
2022-11-26T00:46:44.403Z,6.00
2022-11-26T00:49:11.209Z,6.00
2022-11-26T00:51:38.724Z,6.00
2022-11-26T00:54:06.186Z,6.10
2022-11-26T00:56:37.827Z,6.20
2022-11-26T00:59:05.093Z,6.40
2022-11-26T01:01:32.990Z,6.40
2022-11-26T01:03:59.994Z,6.60
2022-11-26T01:06:30.474Z,6.60
2022-11-26T01:08:57.400Z,6.60
2022-11-26T01:11:24.458Z,6.60
2022-11-26T01:13:52.042Z,6.50
2022-11-26T01:16:18.914Z,6.50
2022-11-26T01:18:46.427Z,6.60
2022-11-26T01:21:13.762Z,6.50
2022-11-26T01:23:40.648Z,6.50
2022-11-26T01:26:12.952Z,6.30
2022-11-26T01:28:39.808Z,6.20
2022-11-26T01:31:09.399Z,6.20
2022-11-26T01:33:36.266Z,6.10
2022-11-26T01:36:03.180Z,6.00
2022-11-26T01:38:30.062Z,6.00
2022-11-26T01:41:03.257Z,6.00
2022-11-26T01:43:33.382Z,6.00
2022-11-26T01:46:00.302Z,6.00
2022-11-26T01:48:31.473Z,6.10
2022-11-26T01:51:06.045Z,6.20
2022-11-26T01:53:32.838Z,6.20
2022-11-26T01:56:01.954Z,6.20
2022-11-26T01:58:40.235Z,6.20
2022-11-26T02:01:07.381Z,6.30
2022-11-26T02:03:37.342Z,6.30
2022-11-26T02:06:06.952Z,6.40
2022-11-26T02:08:34.514Z,6.30
2022-11-26T02:11:21.494Z,6.40
2022-11-26T02:13:49.487Z,6.50
2022-11-26T02:16:34.868Z,6.50
2022-11-26T02:19:09.878Z,6.50
2022-11-26T02:21:38.374Z,6.60
2022-11-26T02:24:14.289Z,6.60
2022-11-26T02:26:47.814Z,6.50
2022-11-26T02:29:21.989Z,6.70
2022-11-26T02:31:53.455Z,6.60
2022-11-26T02:34:20.298Z,6.80
2022-11-26T02:36:49.642Z,6.80
2022-11-26T02:39:18.290Z,6.80
2022-11-26T02:41:46.708Z,6.80
2022-11-26T02:44:17.469Z,6.80
2022-11-26T02:46:45.790Z,6.70
2022-11-26T02:49:14.799Z,6.70
2022-11-26T02:51:41.767Z,6.70
2022-11-26T02:54:09.289Z,6.80
2022-11-26T02:56:36.321Z,6.70
2022-11-26T02:59:03.943Z,6.70
2022-11-26T03:01:36.208Z,6.70
2022-11-26T03:04:07.544Z,6.60
2022-11-26T03:06:34.919Z,6.60
2022-11-26T03:09:01.765Z,6.70
2022-11-26T03:11:28.593Z,6.70
2022-11-26T03:13:55.614Z,6.70
2022-11-26T03:16:22.491Z,6.80
2022-11-26T03:18:49.358Z,6.80
2022-11-26T03:21:16.298Z,6.80
2022-11-26T03:23:43.112Z,6.80
2022-11-26T03:26:09.932Z,6.70
2022-11-26T03:28:36.781Z,6.80
2022-11-26T03:31:03.608Z,6.80
2022-11-26T03:33:30.384Z,6.80
2022-11-26T03:35:57.394Z,6.70
2022-11-26T03:38:24.250Z,6.70
2022-11-26T03:40:58.306Z,6.60
2022-11-26T03:43:25.122Z,6.60
2022-11-26T03:45:52.029Z,6.60
2022-11-26T03:48:18.940Z,6.60
2022-11-26T03:50:45.782Z,6.70
2022-11-26T03:53:12.647Z,6.60
2022-11-26T03:55:39.522Z,6.50
2022-11-26T03:58:06.305Z,6.60
2022-11-26T04:00:33.204Z,6.60
2022-11-26T04:03:00.013Z,6.60
2022-11-26T04:05:26.921Z,6.70
2022-11-26T04:07:54.529Z,6.80
2022-11-26T04:10:21.413Z,6.60
2022-11-26T04:12:48.319Z,6.60
2022-11-26T04:15:15.224Z,6.60
2022-11-26T04:17:42.085Z,6.50
2022-11-26T04:20:09.146Z,6.40
2022-11-26T04:22:36.109Z,6.40
2022-11-26T04:25:03.003Z,6.30
2022-11-26T04:27:29.812Z,6.20
2022-11-26T04:29:56.620Z,6.10
2022-11-26T04:32:23.503Z,6.10
2022-11-26T04:34:50.394Z,6.10
2022-11-26T04:37:17.202Z,6.00
2022-11-26T04:39:44.034Z,6.00
2022-11-26T04:42:10.816Z,6.00
2022-11-26T04:44:37.902Z,5.80
2022-11-26T04:47:04.987Z,5.80
2022-11-26T04:49:31.799Z,5.60
2022-11-26T04:51:58.791Z,5.50
2022-11-26T04:54:25.646Z,5.40
2022-11-26T04:56:52.470Z,5.30
2022-11-26T04:59:19.277Z,5.10
2022-11-26T05:01:46.183Z,5.10
2022-11-26T05:04:13.066Z,5.10
2022-11-26T05:06:39.881Z,5.00
2022-11-26T05:09:06.766Z,4.90
2022-11-26T05:11:33.666Z,4.90
2022-11-26T05:14:00.487Z,4.90
2022-11-26T05:16:27.394Z,4.80
2022-11-26T05:18:54.330Z,4.60
2022-11-26T05:21:21.155Z,4.50
2022-11-26T05:23:48.142Z,4.50
2022-11-26T05:26:14.894Z,4.50
2022-11-26T05:28:41.717Z,4.30
2022-11-26T05:31:08.575Z,4.30
2022-11-26T05:33:35.408Z,4.40
2022-11-26T05:36:02.211Z,4.20
2022-11-26T05:38:29.097Z,4.00
2022-11-26T05:40:56.062Z,4.00
2022-11-26T05:43:23.010Z,4.00
2022-11-26T05:45:49.869Z,4.20
2022-11-26T05:48:16.712Z,4.00
2022-11-26T05:50:43.578Z,3.80
2022-11-26T05:53:10.462Z,3.60
2022-11-26T05:55:37.320Z,3.50
2022-11-26T05:58:04.390Z,3.50
2022-11-26T06:00:31.201Z,3.40
2022-11-26T06:02:58.098Z,3.30
2022-11-26T06:05:25.071Z,3.20
2022-11-26T06:07:51.871Z,3.30
2022-11-26T06:10:19.025Z,3.20
2022-11-26T06:12:45.861Z,3.30
2022-11-26T06:15:12.661Z,3.50
2022-11-26T06:17:39.569Z,3.50
2022-11-26T06:20:06.611Z,3.40
2022-11-26T06:22:40.140Z,3.50
2022-11-26T06:25:09.128Z,3.50
2022-11-26T06:27:36.551Z,3.50
2022-11-26T06:30:04.759Z,3.50
2022-11-26T06:32:31.969Z,3.40
2022-11-26T06:34:58.805Z,3.30
2022-11-26T06:37:25.669Z,3.30
2022-11-26T06:39:52.574Z,3.20
2022-11-26T06:42:19.534Z,3.20
2022-11-26T06:44:46.532Z,3.10
2022-11-26T06:47:13.861Z,3.00
2022-11-26T06:49:41.130Z,3.10
2022-11-26T06:52:08.011Z,3.00
2022-11-26T06:54:34.806Z,2.90
2022-11-26T06:57:01.887Z,2.90
2022-11-26T06:59:28.787Z,2.90
2022-11-26T07:01:55.647Z,2.80
2022-11-26T07:04:22.795Z,2.80
2022-11-26T07:06:49.767Z,2.80
2022-11-26T07:09:16.565Z,2.90
2022-11-26T07:11:43.567Z,2.90
2022-11-26T07:14:10.405Z,2.90
2022-11-26T07:16:37.261Z,2.90
2022-11-26T07:19:04.151Z,3.00
2022-11-26T07:21:30.961Z,3.10
2022-11-26T07:23:58.474Z,3.40
2022-11-26T07:26:25.290Z,3.50
2022-11-26T07:28:52.160Z,3.70
2022-11-26T07:31:20.888Z,3.80
2022-11-26T07:33:47.880Z,3.90
2022-11-26T07:36:16.421Z,3.90
2022-11-26T07:38:43.268Z,3.90
2022-11-26T07:41:11.488Z,4.20
2022-11-26T07:43:39.016Z,4.30
2022-11-26T07:46:06.829Z,4.40
2022-11-26T07:48:34.525Z,4.40
2022-11-26T07:51:02.245Z,4.40
2022-11-26T07:53:30.788Z,4.50
2022-11-26T07:55:57.650Z,4.50
2022-11-26T07:58:24.647Z,4.50
2022-11-26T08:00:54.582Z,4.50
2022-11-26T08:03:21.849Z,4.40
2022-11-26T08:05:48.688Z,4.50
2022-11-26T08:08:15.757Z,4.50
2022-11-26T08:10:42.806Z,4.40
2022-11-26T08:13:09.696Z,4.40
2022-11-26T08:15:37.704Z,4.40
2022-11-26T08:18:04.604Z,4.40
2022-11-26T08:20:31.439Z,4.70
2022-11-26T08:22:58.348Z,4.50
2022-11-26T08:25:25.199Z,4.80
2022-11-26T08:27:52.025Z,5.10
2022-11-26T08:30:18.909Z,5.20
2022-11-26T08:32:45.719Z,5.50
2022-11-26T08:35:12.654Z,5.70
2022-11-26T08:37:42.325Z,5.90
2022-11-26T08:40:09.553Z,6.10
2022-11-26T08:42:36.447Z,6.40
2022-11-26T08:45:03.401Z,7.10
2022-11-26T08:47:30.230Z,7.80
2022-11-26T08:49:57.065Z,8.90
2022-11-26T08:52:23.896Z,9.60
2022-11-26T08:54:50.941Z,10.90
2022-11-26T08:57:17.825Z,12.00
2022-11-26T08:59:44.658Z,12.90
2022-11-26T09:02:15.972Z,13.70
2022-11-26T09:04:45.350Z,14.90
2022-11-26T09:07:12.330Z,15.20
2022-11-26T09:09:39.294Z,15.50
2022-11-26T09:12:06.161Z,16.20
2022-11-26T09:14:37.984Z,17.00
2022-11-26T09:17:05.683Z,16.30
2022-11-26T09:19:32.514Z,14.80
2022-11-26T09:21:59.590Z,13.50
2022-11-26T09:24:26.408Z,12.40
2022-11-26T09:26:53.714Z,11.70
2022-11-26T09:29:22.049Z,10.80
2022-11-26T09:32:21.464Z,10.60
2022-11-26T09:34:37.176Z,10.10
2022-11-26T09:37:04.205Z,9.80
2022-11-26T09:39:31.017Z,9.40
2022-11-26T09:42:21.397Z,9.20
2022-11-26T09:44:57.542Z,9.00
2022-11-26T09:47:28.424Z,8.90
2022-11-26T09:49:55.261Z,8.70
2022-11-26T09:52:24.092Z,8.70
2022-11-26T09:54:55.060Z,8.60
2022-11-26T09:57:26.042Z,8.60
2022-11-26T09:59:53.955Z,8.60
2022-11-26T10:02:20.986Z,8.50
2022-11-26T10:04:48.285Z,8.40
2022-11-26T10:07:27.392Z,8.40
2022-11-26T10:10:03.158Z,8.40
2022-11-26T10:13:03.117Z,8.40
2022-11-26T10:15:38.672Z,8.20
2022-11-26T10:18:13.085Z,7.90
2022-11-26T10:20:51.913Z,8.00
2022-11-26T10:23:25.646Z,8.10
2022-11-26T10:25:54.743Z,8.00
2022-11-26T10:28:26.423Z,8.10
2022-11-26T10:30:57.515Z,8.20
2022-11-26T10:33:24.376Z,8.30
2022-11-26T10:35:51.356Z,8.20
2022-11-26T10:38:18.191Z,8.20
2022-11-26T10:40:44.999Z,8.10
2022-11-26T10:43:17.566Z,8.10
2022-11-26T10:45:46.195Z,8.20
2022-11-26T10:48:29.235Z,8.20
2022-11-26T10:50:58.246Z,8.20
2022-11-26T10:53:25.708Z,8.20
2022-11-26T10:55:54.865Z,8.20
2022-11-26T10:58:26.707Z,8.30
2022-11-26T11:00:58.545Z,8.30
2022-11-26T11:03:51.880Z,8.40
2022-11-26T11:06:33.765Z,8.10
2022-11-26T11:09:00.616Z,7.90
2022-11-26T11:11:28.559Z,7.90
2022-11-26T11:13:55.806Z,7.90
2022-11-26T11:16:27.361Z,7.80
2022-11-26T11:18:56.859Z,7.70
2022-11-26T11:21:27.769Z,7.60
2022-11-26T11:24:09.329Z,7.60
2022-11-26T11:26:41.275Z,7.60
2022-11-26T11:29:22.922Z,7.70
2022-11-26T11:31:49.867Z,7.60
2022-11-26T11:34:21.133Z,7.60
2022-11-26T11:37:05.192Z,7.70
2022-11-26T11:39:35.433Z,7.70
2022-11-26T11:42:04.552Z,7.70
2022-11-26T11:44:45.467Z,7.80
2022-11-26T11:47:28.481Z,7.90
2022-11-26T11:50:10.652Z,7.80
2022-11-26T11:52:43.337Z,7.70
2022-11-26T11:55:25.446Z,7.50
2022-11-26T11:58:02.569Z,7.50
2022-11-26T12:00:38.934Z,7.60
2022-11-26T12:03:15.391Z,7.70
2022-11-26T12:05:57.500Z,7.70
2022-11-26T12:08:35.127Z,7.60
2022-11-26T12:11:22.217Z,7.60
2022-11-26T12:13:54.821Z,7.60
2022-11-26T12:16:27.235Z,7.70
2022-11-26T12:18:58.537Z,7.70
2022-11-26T12:21:30.916Z,7.80
2022-11-26T12:24:11.541Z,7.70
2022-11-26T12:26:51.138Z,7.70
2022-11-26T12:29:26.105Z,7.80
2022-11-26T12:31:55.461Z,7.70
2022-11-26T12:34:32.790Z,7.70
2022-11-26T12:36:59.597Z,7.60
2022-11-26T12:39:47.968Z,7.60
2022-11-26T12:42:24.810Z,7.50
2022-11-26T12:44:52.616Z,7.50
2022-11-26T12:47:19.437Z,7.50
2022-11-26T12:50:04.939Z,7.50
2022-11-26T12:52:50.291Z,7.70
2022-11-26T12:55:21.454Z,7.60
2022-11-26T12:57:53.346Z,7.60
2022-11-26T13:00:26.138Z,7.60
2022-11-26T13:02:54.478Z,7.80
2022-11-26T13:05:27.474Z,7.70
2022-11-26T13:08:12.788Z,7.80
2022-11-26T13:10:58.317Z,7.80
2022-11-26T13:13:31.362Z,7.80
2022-11-26T13:16:16.836Z,7.80
2022-11-26T13:18:46.406Z,7.80
2022-11-26T13:21:16.325Z,7.90
2022-11-26T13:23:51.011Z,8.00
2022-11-26T13:26:33.069Z,8.20
2022-11-26T13:29:11.703Z,8.40
2022-11-26T13:31:57.303Z,8.50
2022-11-26T13:34:44.437Z,8.60
2022-11-26T13:37:14.435Z,8.40
2022-11-26T13:39:50.306Z,8.30
2022-11-26T13:42:22.973Z,8.30
2022-11-26T13:45:08.253Z,8.40
2022-11-26T13:47:35.101Z,8.40
2022-11-26T13:50:08.112Z,8.60
2022-11-26T13:52:50.595Z,8.60
2022-11-26T13:55:21.069Z,8.40
2022-11-26T13:57:55.218Z,8.50
2022-11-26T14:00:29.444Z,8.50
2022-11-26T14:02:56.837Z,8.60
2022-11-26T14:05:23.997Z,8.70
2022-11-26T14:07:50.881Z,8.70
2022-11-26T14:10:36.960Z,8.80
2022-11-26T14:13:03.864Z,8.80
2022-11-26T14:15:42.609Z,8.90
2022-11-26T14:18:13.292Z,8.80
2022-11-26T14:20:59.626Z,8.60
2022-11-26T14:23:41.717Z,8.60
2022-11-26T14:26:10.215Z,8.30
2022-11-26T14:28:37.016Z,8.30
2022-11-26T14:31:22.053Z,8.00
2022-11-26T14:33:50.904Z,7.80
2022-11-26T14:36:25.389Z,7.90
2022-11-26T14:39:07.238Z,7.90
2022-11-26T14:41:52.714Z,7.90
2022-11-26T14:44:20.205Z,7.70
2022-11-26T14:46:52.060Z,7.70
2022-11-26T14:49:18.898Z,7.70
2022-11-26T14:51:46.759Z,7.60
2022-11-26T14:54:15.929Z,7.50
2022-11-26T14:56:46.445Z,7.40
2022-11-26T14:59:16.918Z,7.30
2022-11-26T15:01:45.041Z,7.10
2022-11-26T15:04:22.493Z,7.10
2022-11-26T15:06:49.376Z,7.10
2022-11-26T15:09:17.351Z,7.00
2022-11-26T15:11:46.912Z,7.00
2022-11-26T15:14:18.106Z,7.00
2022-11-26T15:16:48.884Z,6.90
2022-11-26T15:19:18.716Z,6.90
2022-11-26T15:21:45.563Z,6.80
2022-11-26T15:24:14.369Z,7.00
2022-11-26T15:26:44.646Z,6.80
2022-11-26T15:29:28.021Z,6.70
2022-11-26T15:31:54.970Z,6.50
2022-11-26T15:34:21.921Z,6.50
2022-11-26T15:36:48.797Z,6.30
2022-11-26T15:39:24.207Z,6.40
2022-11-26T15:41:51.279Z,6.20
2022-11-26T15:44:25.291Z,6.10
2022-11-26T15:46:53.398Z,6.00
2022-11-26T15:49:22.219Z,5.80
2022-11-26T15:51:51.779Z,5.70
2022-11-26T15:54:24.169Z,5.60
2022-11-26T15:56:53.559Z,5.40
2022-11-26T15:59:20.554Z,5.30
2022-11-26T16:01:47.543Z,5.20
2022-11-26T16:04:32.923Z,5.10
2022-11-26T16:07:10.601Z,4.90
2022-11-26T16:09:37.501Z,5.10
2022-11-26T16:12:04.387Z,5.00
2022-11-26T16:14:35.445Z,4.70
2022-11-26T16:17:08.258Z,4.60
2022-11-26T16:19:36.074Z,4.40
2022-11-26T16:22:04.583Z,4.30
2022-11-26T16:24:38.771Z,4.30
2022-11-26T16:27:07.635Z,4.30
2022-11-26T16:29:36.112Z,4.40
2022-11-26T16:32:03.365Z,4.30
2022-11-26T16:34:30.425Z,4.20
2022-11-26T16:37:04.543Z,4.00
2022-11-26T16:39:37.550Z,4.00
2022-11-26T16:42:14.556Z,4.00
2022-11-26T16:44:42.162Z,4.30
2022-11-26T16:47:14.206Z,4.20
2022-11-26T16:49:41.092Z,4.00
2022-11-26T16:52:12.308Z,4.00
2022-11-26T16:54:39.496Z,4.00
2022-11-26T16:57:11.018Z,3.90
2022-11-26T16:59:37.849Z,3.80
2022-11-26T17:02:06.725Z,3.80
2022-11-26T17:04:33.686Z,3.60
2022-11-26T17:07:00.521Z,3.60
2022-11-26T17:09:27.385Z,3.70
2022-11-26T17:11:54.241Z,3.70
2022-11-26T17:14:21.183Z,3.90
2022-11-26T17:16:48.043Z,3.90
2022-11-26T17:19:16.365Z,4.00
2022-11-26T17:21:43.210Z,4.10
2022-11-26T17:24:10.018Z,4.00
2022-11-26T17:26:37.066Z,3.80
2022-11-26T17:29:04.220Z,3.70
2022-11-26T17:31:31.228Z,3.70
2022-11-26T17:33:58.216Z,3.80
2022-11-26T17:36:25.151Z,3.90
2022-11-26T17:38:52.162Z,4.00
2022-11-26T17:41:19.133Z,4.10
2022-11-26T17:43:45.955Z,4.20
2022-11-26T17:46:14.105Z,4.20
2022-11-26T17:48:41.115Z,4.30
2022-11-26T17:51:09.214Z,4.40
2022-11-26T17:53:36.066Z,4.60
2022-11-26T17:56:02.862Z,4.60
2022-11-26T17:58:29.722Z,4.50
2022-11-26T18:00:56.869Z,4.60
2022-11-26T18:03:23.763Z,4.70
2022-11-26T18:05:50.614Z,4.70
2022-11-26T18:08:17.669Z,4.80
2022-11-26T18:10:44.485Z,4.80
2022-11-26T18:13:11.333Z,4.80
2022-11-26T18:15:38.166Z,4.70
2022-11-26T18:18:05.149Z,4.60
2022-11-26T18:20:32.087Z,4.40
2022-11-26T18:22:59.892Z,4.40
2022-11-26T18:25:27.437Z,4.40
2022-11-26T18:27:54.463Z,4.40
2022-11-26T18:30:21.526Z,4.50
2022-11-26T18:32:48.587Z,4.50
2022-11-26T18:35:15.497Z,4.70
2022-11-26T18:37:42.618Z,4.60
2022-11-26T18:40:11.171Z,4.70
2022-11-26T18:42:38.596Z,4.70
2022-11-26T18:45:06.758Z,4.70
2022-11-26T18:47:33.753Z,4.70
2022-11-26T18:50:00.649Z,4.60
2022-11-26T18:52:27.645Z,4.60
2022-11-26T18:54:54.417Z,4.50
2022-11-26T18:57:21.240Z,4.50
2022-11-26T18:59:48.956Z,4.50
2022-11-26T19:02:15.918Z,4.50
2022-11-26T19:04:42.808Z,4.60
2022-11-26T19:07:12.032Z,4.70
2022-11-26T19:09:39.289Z,4.80
2022-11-26T19:12:06.473Z,4.70
2022-11-26T19:14:33.438Z,4.70
2022-11-26T19:17:00.738Z,4.70
2022-11-26T19:19:28.379Z,4.80
2022-11-26T19:22:00.902Z,4.80
2022-11-26T19:24:28.824Z,4.70
2022-11-26T19:26:55.798Z,4.70
2022-11-26T19:29:22.669Z,4.70
2022-11-26T19:31:49.524Z,4.80
2022-11-26T19:34:16.523Z,4.70
2022-11-26T19:36:48.229Z,4.70
2022-11-26T19:39:15.937Z,4.80
2022-11-26T19:41:42.799Z,5.00
2022-11-26T19:44:09.667Z,4.90
2022-11-26T19:46:37.341Z,4.70
2022-11-26T19:49:04.182Z,4.70
2022-11-26T19:51:31.045Z,4.60
2022-11-26T19:53:58.090Z,4.50
2022-11-26T19:56:31.565Z,4.30
2022-11-26T19:58:58.796Z,4.20
2022-11-26T20:01:30.371Z,4.10
2022-11-26T20:03:58.696Z,4.10
2022-11-26T20:06:26.799Z,4.10
2022-11-26T20:08:54.179Z,4.00
2022-11-26T20:11:21.423Z,4.00
2022-11-26T20:13:48.972Z,3.90
2022-11-26T20:16:19.197Z,3.80
2022-11-26T20:18:46.720Z,3.70
2022-11-26T20:21:14.882Z,3.60
2022-11-26T20:23:41.754Z,3.40
2022-11-26T20:26:17.942Z,3.40
2022-11-26T20:28:44.888Z,3.40
2022-11-26T20:31:12.846Z,3.40
2022-11-26T20:33:40.019Z,3.30
2022-11-26T20:36:08.229Z,3.30
2022-11-26T20:38:35.467Z,3.40
2022-11-26T20:41:06.595Z,3.30
2022-11-26T20:43:33.811Z,3.20
2022-11-26T20:46:01.827Z,3.10
2022-11-26T20:48:28.782Z,3.10
2022-11-26T20:50:55.678Z,3.00
2022-11-26T20:53:22.534Z,3.00
2022-11-26T20:55:56.524Z,3.10
2022-11-26T20:58:24.218Z,3.00
2022-11-26T21:00:51.393Z,3.10
2022-11-26T21:03:18.275Z,3.00
2022-11-26T21:05:45.078Z,3.20
2022-11-26T21:08:11.966Z,3.20
2022-11-26T21:10:40.115Z,3.00
2022-11-26T21:13:07.516Z,3.10
2022-11-26T21:15:34.361Z,3.00
2022-11-26T21:18:01.213Z,3.00
2022-11-26T21:20:32.157Z,2.90
2022-11-26T21:23:01.844Z,2.90
2022-11-26T21:25:28.722Z,2.90
2022-11-26T21:27:55.959Z,3.00
2022-11-26T21:30:22.837Z,3.00
2022-11-26T21:32:49.636Z,3.00
2022-11-26T21:35:16.509Z,2.90
2022-11-26T21:37:43.282Z,3.00
2022-11-26T21:40:10.379Z,2.90
2022-11-26T21:42:37.277Z,3.00
2022-11-26T21:45:04.506Z,3.10
2022-11-26T21:47:31.354Z,3.10
2022-11-26T21:49:58.168Z,3.00
2022-11-26T21:52:24.984Z,2.80
2022-11-26T21:54:51.778Z,2.80
2022-11-26T21:57:18.992Z,2.80
2022-11-26T21:59:45.828Z,2.70
2022-11-26T22:02:13.012Z,2.70
2022-11-26T22:04:39.954Z,2.70
2022-11-26T22:07:06.855Z,2.70
2022-11-26T22:09:33.933Z,2.60
2022-11-26T22:12:00.781Z,2.70
2022-11-26T22:14:27.585Z,2.50
2022-11-26T22:16:54.409Z,2.40
2022-11-26T22:19:21.249Z,2.30
2022-11-26T22:21:48.145Z,2.30
2022-11-26T22:24:15.600Z,2.30
2022-11-26T22:26:42.818Z,2.30
2022-11-26T22:29:11.562Z,2.30
2022-11-26T22:31:38.625Z,2.30
2022-11-26T22:34:06.772Z,2.40
2022-11-26T22:36:34.053Z,2.40
2022-11-26T22:39:02.235Z,2.30
2022-11-26T22:41:29.072Z,2.30
2022-11-26T22:43:57.762Z,2.20
2022-11-26T22:46:24.707Z,2.30
2022-11-26T22:48:59.029Z,2.20
2022-11-26T22:51:28.177Z,2.10
2022-11-26T22:53:56.343Z,2.10
2022-11-26T22:56:23.589Z,2.00
2022-11-26T22:58:50.392Z,2.10
2022-11-26T23:01:27.785Z,2.20
2022-11-26T23:03:55.259Z,2.10
2022-11-26T23:06:23.131Z,2.10
2022-11-26T23:08:50.101Z,1.90
2022-11-26T23:11:21.152Z,1.90
2022-11-26T23:13:48.475Z,1.90
2022-11-26T23:16:15.806Z,1.90
2022-11-26T23:18:42.703Z,1.90
2022-11-26T23:21:11.387Z,1.80
2022-11-26T23:23:38.968Z,1.80
2022-11-26T23:26:06.713Z,1.80
2022-11-26T23:28:34.204Z,1.70
2022-11-26T23:31:01.905Z,1.70
2022-11-26T23:33:29.028Z,1.70
2022-11-26T23:35:56.209Z,1.60
2022-11-26T23:38:23.565Z,1.60
2022-11-26T23:40:56.745Z,1.50
2022-11-26T23:43:24.151Z,1.50
2022-11-26T23:45:51.115Z,1.50
2022-11-26T23:48:17.964Z,1.60
2022-11-26T23:50:44.820Z,1.60
2022-11-26T23:53:11.720Z,1.50
2022-11-26T23:55:38.560Z,1.50
2022-11-26T23:58:05.364Z,1.50
